Time;durP1;ratioP1;P1;durP2;ratioP2;P2;SDS_P1;SDS_P2;PMS_P1;PMS_P2;Temp;Humidity;BMP_temperature;BMP_pressure;BME280_temperature;BME280_humidity;BME280_pressure;Samples;Min_cycle;Max_cycle;Signal;HPM_P1;HPM_P2
2021/12/01 00:02:00;;;;;;;22.20;5.18;;;;;;;12.41;69.21;99899.41;5221041;28;20427;-48
2021/12/01 00:04:34;;;;;;;18.05;3.72;;;;;;;12.34;69.13;99885.25;5222873;28;20420;-42
2021/12/01 00:07:08;;;;;;;17.08;3.75;;;;;;;12.41;69.16;99882.69;5222091;28;20894;-41
2021/12/01 00:09:43;;;;;;;18.07;4.03;;;;;;;12.40;68.90;99871.28;5221175;28;20966;-42
2021/12/01 00:12:15;;;;;;;16.13;3.67;;;;;;;12.39;69.03;99859.06;5217496;28;20419;-45
2021/12/01 00:14:48;;;;;;;16.77;4.25;;;;;;;12.39;69.07;99847.66;5216650;28;20400;-43
2021/12/01 00:17:20;;;;;;;15.07;3.30;;;;;;;12.39;69.09;99843.19;5221542;28;20883;-43
2021/12/01 00:19:54;;;;;;;16.00;3.88;;;;;;;12.41;69.03;99825.25;5220544;28;20869;-42
2021/12/01 00:22:27;;;;;;;19.38;3.70;;;;;;;12.42;68.98;99818.97;5217998;28;20854;-46
2021/12/01 00:24:59;;;;;;;18.38;3.83;;;;;;;12.48;68.67;99813.91;5215678;28;20869;-42
2021/12/01 00:27:32;;;;;;;17.10;4.03;;;;;;;12.51;68.85;99810.88;5220878;28;20412;-44
2021/12/01 00:30:06;;;;;;;20.73;3.67;;;;;;;12.52;68.60;99816.03;5216458;28;20430;-42
2021/12/01 00:32:39;;;;;;;25.85;5.00;;;;;;;12.45;68.63;99800.06;5217605;28;20406;-42
2021/12/01 00:35:13;;;;;;;15.93;4.15;;;;;;;12.38;68.75;99788.56;5222376;28;20411;-42
2021/12/01 00:37:45;;;;;;;22.33;4.65;;;;;;;12.45;68.95;99789.47;5224275;28;20455;-43
2021/12/01 00:40:18;;;;;;;26.42;5.18;;;;;;;12.43;68.88;99786.19;5216854;28;20479;-43
2021/12/01 00:42:50;;;;;;;23.10;5.25;;;;;;;12.42;68.81;99763.38;5216480;28;20439;-42
2021/12/01 00:45:23;;;;;;;22.88;4.22;;;;;;;12.41;68.84;99764.34;5223841;28;20412;-43
2021/12/01 00:47:56;;;;;;;29.65;4.70;;;;;;;12.43;68.80;99746.47;5226244;28;20411;-41
2021/12/01 00:50:33;;;;;;;29.48;5.30;;;;;;;12.41;68.73;99737.88;5221394;28;20426;-42
2021/12/01 00:53:07;;;;;;;20.02;4.13;;;;;;;12.42;68.66;99739.53;5222928;28;20791;-46
2021/12/01 00:55:42;;;;;;;23.23;4.45;;;;;;;12.44;68.76;99740.13;5224585;28;20434;-43
2021/12/01 00:58:16;;;;;;;27.95;6.10;;;;;;;12.42;68.80;99730.78;5224411;28;20412;-43
2021/12/01 01:00:49;;;;;;;31.65;5.72;;;;;;;12.40;68.71;99715.06;5220438;28;20407;-42
2021/12/01 01:03:22;;;;;;;23.40;5.75;;;;;;;12.40;68.68;99717.72;5221714;28;20810;-41
2021/12/01 01:05:56;;;;;;;27.83;5.68;;;;;;;12.41;68.72;99708.75;5222429;28;20423;-42
2021/12/01 01:08:28;;;;;;;23.30;5.85;;;;;;;12.41;68.75;99718.53;5217951;28;20903;-42
2021/12/01 01:16:22;;;;;;;25.13;5.63;;;;;;;12.38;68.62;99717.06;5224026;28;20419;-42
2021/12/01 01:16:53;;;;;;;31.63;6.00;;;;;;;12.37;68.59;99681.00;5213521;28;20428;-42
2021/12/01 01:19:26;;;;;;;26.58;5.28;;;;;;;12.34;68.59;99673.44;5222474;28;20456;-48
2021/12/01 01:22:01;;;;;;;40.33;8.27;;;;;;;12.33;68.69;99669.19;5228630;28;20428;-47
2021/12/01 01:24:34;;;;;;;34.90;8.07;;;;;;;12.35;68.62;99667.13;5224450;28;20418;-43
2021/12/01 01:27:07;;;;;;;40.38;7.47;;;;;;;12.34;68.63;99654.09;5221805;28;24055;-42
2021/12/01 01:29:39;;;;;;;42.05;7.45;;;;;;;12.33;68.50;99653.28;5228543;28;20506;-44
2021/12/01 01:32:12;;;;;;;41.63;6.47;;;;;;;12.34;68.53;99649.63;5223468;28;20420;-41
2021/12/01 01:34:44;;;;;;;43.33;6.93;;;;;;;12.32;68.65;99654.28;5221659;28;20443;-41
2021/12/01 01:37:18;;;;;;;36.30;7.00;;;;;;;12.13;68.57;99596.69;5225872;28;20966;-44
2021/12/01 01:39:50;;;;;;;42.17;7.05;;;;;;;12.34;68.52;99628.44;5230297;28;20433;-42
2021/12/01 01:42:22;;;;;;;38.65;7.85;;;;;;;12.33;68.53;99624.16;5222584;28;20424;-42
2021/12/01 01:44:55;;;;;;;34.97;6.28;;;;;;;12.35;68.55;99616.84;5225328;28;20519;-42
2021/12/01 01:47:27;;;;;;;34.28;7.25;;;;;;;12.29;68.59;99609.66;5224006;28;20774;-42
2021/12/01 01:50:02;;;;;;;36.13;6.82;;;;;;;12.30;68.62;99615.78;5226355;28;20412;-42
2021/12/01 01:52:36;;;;;;;37.13;6.18;;;;;;;12.27;68.61;99585.22;5228275;28;20954;-42
2021/12/01 01:55:09;;;;;;;31.88;7.70;;;;;;;12.28;68.47;99581.56;5223257;28;20405;-42
2021/12/01 01:57:44;;;;;;;35.90;7.05;;;;;;;12.29;68.49;99559.34;5224489;28;20424;-42
2021/12/01 02:00:17;;;;;;;35.30;7.65;;;;;;;12.28;68.57;99573.63;5224694;28;20407;-41
2021/12/01 02:02:50;;;;;;;38.78;8.05;;;;;;;12.29;68.43;99564.66;5226615;28;20416;-42
2021/12/01 02:05:23;;;;;;;31.42;7.30;;;;;;;12.27;68.52;99532.28;5227329;28;20408;-41
2021/12/01 02:07:57;;;;;;;41.00;7.75;;;;;;;12.24;68.46;99545.91;5218809;28;20496;-41
2021/12/01 02:10:29;;;;;;;42.45;8.57;;;;;;;12.25;68.49;99520.25;5222732;28;20400;-41
2021/12/01 02:13:01;;;;;;;47.15;8.63;;;;;;;12.21;68.43;99511.88;5225886;28;20466;-43
2021/12/01 02:15:35;;;;;;;39.10;7.88;;;;;;;12.19;68.49;99501.47;5223662;28;20435;-42
2021/12/01 02:18:07;;;;;;;55.57;9.40;;;;;;;12.18;68.57;99491.09;5225237;28;20980;-42
2021/12/01 02:20:57;;;;;;;35.70;8.10;;;;;;;12.21;68.61;99490.69;5215731;28;20500;-41
2021/12/01 02:23:29;;;;;;;41.20;9.15;;;;;;;12.25;68.56;99485.84;5223408;28;20499;-43
2021/12/01 02:26:03;;;;;;;47.97;8.65;;;;;;;12.27;68.59;99483.81;5227826;28;20426;-42
2021/12/01 02:28:36;;;;;;;53.15;9.55;;;;;;;12.28;68.47;99475.66;5224284;28;20782;-43
2021/12/01 02:31:10;;;;;;;43.83;8.70;;;;;;;12.31;68.57;99463.88;5224126;28;20776;-42
2021/12/01 02:33:43;;;;;;;41.80;7.88;;;;;;;12.31;68.46;99448.81;5220057;28;20818;-46
2021/12/01 02:36:17;;;;;;;32.67;7.07;;;;;;;12.34;68.55;99448.41;5222475;28;20502;-43
2021/12/01 02:38:50;;;;;;;39.70;6.67;;;;;;;12.36;68.48;99450.88;5218500;28;20498;-42
2021/12/01 02:41:28;;;;;;;29.00;5.53;;;;;;;12.40;68.47;99442.34;5224302;28;20425;-44
2021/12/01 02:44:04;;;;;;;35.10;7.38;;;;;;;12.40;68.55;99441.53;5223227;28;20424;-43
2021/12/01 02:46:37;;;;;;;34.95;6.55;;;;;;;12.39;68.54;99419.53;5223852;28;20563;-43
2021/12/01 02:49:10;;;;;;;35.28;7.68;;;;;;;12.18;68.67;99390.50;5221278;28;20420;-41
2021/12/01 02:51:45;;;;;;;24.10;6.10;;;;;;;12.40;68.40;99417.69;5218885;28;20868;-41
2021/12/01 02:54:17;;;;;;;24.73;5.80;;;;;;;12.43;68.45;99399.59;5217378;28;20975;-44
2021/12/01 02:56:53;;;;;;;30.20;5.93;;;;;;;12.43;68.35;99394.28;5225494;28;20790;-42
2021/12/01 02:59:27;;;;;;;24.63;6.63;;;;;;;12.40;68.49;99376.16;5219709;28;20749;-41
2021/12/01 03:02:01;;;;;;;23.10;5.30;;;;;;;12.43;68.53;99383.69;5218934;28;20433;-43
2021/12/01 03:04:35;;;;;;;24.58;6.38;;;;;;;12.40;68.46;99352.31;5219709;28;20569;-47
2021/12/01 03:07:10;;;;;;;24.83;4.43;;;;;;;12.37;68.46;99367.78;5220506;28;20913;-41
2021/12/01 03:09:43;;;;;;;16.05;4.13;;;;;;;12.34;68.40;99349.66;5219030;28;20411;-43
2021/12/01 03:12:16;;;;;;;15.88;3.38;;;;;;;12.34;68.27;99345.16;5221399;28;20879;-43
2021/12/01 03:14:51;;;;;;;20.10;4.57;;;;;;;12.31;68.38;99342.09;5208300;28;20435;-41
2021/12/01 03:17:26;;;;;;;17.53;3.73;;;;;;;12.30;68.59;99322.75;5218456;28;20434;-43
2021/12/01 03:20:00;;;;;;;14.55;3.92;;;;;;;12.27;68.23;99323.16;5221060;28;20435;-43
2021/12/01 03:22:34;;;;;;;14.50;3.90;;;;;;;12.26;68.34;99305.63;5224205;28;20422;-42
2021/12/01 03:25:11;;;;;;;17.00;3.28;;;;;;;12.27;68.22;99315.22;5219948;28;20517;-49
2021/12/01 03:27:44;;;;;;;14.95;3.13;;;;;;;12.21;68.07;99294.84;5222434;28;20407;-42
2021/12/01 03:30:17;;;;;;;11.55;3.00;;;;;;;12.22;68.20;99291.16;5221270;28;20400;-39
2021/12/01 03:32:49;;;;;;;14.18;3.45;;;;;;;12.17;68.17;99289.13;5221628;28;20412;-42
2021/12/01 03:35:22;;;;;;;10.52;2.63;;;;;;;12.18;68.19;99282.00;5219939;28;20417;-42
2021/12/01 03:37:56;;;;;;;10.45;2.20;;;;;;;12.07;68.08;99246.31;5222213;28;20427;-42
2021/12/01 03:40:28;;;;;;;11.70;2.72;;;;;;;12.14;68.08;99259.56;5224799;28;20839;-44
2021/12/01 03:43:01;;;;;;;13.35;2.80;;;;;;;12.14;68.13;99241.03;5218828;28;20481;-42
2021/12/01 03:45:34;;;;;;;11.45;2.28;;;;;;;12.13;68.06;99250.81;5216983;28;20446;-43
2021/12/01 03:48:07;;;;;;;7.07;2.40;;;;;;;12.10;68.02;99240.63;5223320;28;20368;-41
2021/12/01 03:50:41;;;;;;;8.18;2.15;;;;;;;12.12;67.99;99224.56;5222441;28;20413;-44
2021/12/01 03:53:14;;;;;;;7.70;2.38;;;;;;;12.03;67.98;99210.69;5221612;28;20414;-45
2021/12/01 03:55:47;;;;;;;11.13;3.30;;;;;;;12.04;67.99;99214.16;5219174;28;20503;-40
2021/12/01 03:58:20;;;;;;;7.75;3.15;;;;;;;12.06;68.08;99212.13;5222760;28;20482;-44
2021/12/01 04:00:52;;;;;;;7.22;2.53;;;;;;;12.02;68.02;99200.31;5222448;28;20431;-42
2021/12/01 04:03:25;;;;;;;6.43;3.03;;;;;;;11.94;68.15;99211.88;5220766;28;20397;-42
2021/12/01 04:05:57;;;;;;;4.68;2.50;;;;;;;11.90;68.11;99185.00;5220064;28;20515;-45
2021/12/01 04:08:32;;;;;;;5.90;2.17;;;;;;;11.84;68.16;99177.84;5225075;28;20414;-43
2021/12/01 04:11:05;;;;;;;8.13;2.60;;;;;;;11.79;68.24;99185.53;5220646;28;20417;-44
2021/12/01 04:13:37;;;;;;;5.22;2.70;;;;;;;11.71;68.41;99178.63;5225438;28;20455;-43
2021/12/01 04:16:09;;;;;;;6.20;2.60;;;;;;;11.69;68.39;99174.53;5217163;28;20438;-44
2021/12/01 04:18:43;;;;;;;6.85;2.10;;;;;;;11.66;68.35;99159.06;5223773;28;20406;-46
2021/12/01 04:21:16;;;;;;;4.53;2.00;;;;;;;11.64;68.39;99155.78;5229780;28;20427;-41
2021/12/01 04:23:49;;;;;;;4.47;1.97;;;;;;;11.62;68.30;99152.53;5227651;28;20483;-42
2021/12/01 04:26:24;;;;;;;4.50;2.60;;;;;;;11.60;68.41;99154.56;5227541;28;20489;-44
2021/12/01 04:28:56;;;;;;;5.38;2.60;;;;;;;11.58;68.24;99146.00;5227571;28;20411;-41
2021/12/01 04:31:29;;;;;;;4.78;2.67;;;;;;;11.52;68.46;99147.59;5227348;28;20557;-48
2021/12/01 04:34:03;;;;;;;4.05;2.70;;;;;;;11.42;68.44;99129.47;5228419;28;20934;-42
2021/12/01 04:36:39;;;;;;;3.97;2.70;;;;;;;11.39;68.52;99126.41;5228156;28;20935;-42
2021/12/01 04:39:16;;;;;;;3.88;2.65;;;;;;;11.38;68.53;99115.03;5226079;28;20403;-43
2021/12/01 04:41:52;;;;;;;5.28;2.72;;;;;;;11.38;68.47;99122.94;5225708;28;21200;-43
2021/12/01 04:44:26;;;;;;;5.07;2.75;;;;;;;11.38;68.50;99120.31;5228679;28;20454;-42
2021/12/01 04:47:02;;;;;;;3.65;3.08;;;;;;;11.34;68.65;99105.88;5227718;28;20426;-41
2021/12/01 04:49:37;;;;;;;7.32;3.05;;;;;;;11.32;68.41;99094.66;5230015;28;20871;-42
2021/12/01 04:52:11;;;;;;;4.65;3.22;;;;;;;11.29;68.61;99089.78;5225006;28;20756;-42
2021/12/01 04:54:45;;;;;;;3.78;3.00;;;;;;;11.27;68.71;99084.69;5229337;28;20404;-41
2021/12/01 04:57:17;;;;;;;8.27;3.42;;;;;;;11.31;68.49;99082.47;5219597;28;20432;-45
2021/12/01 04:59:51;;;;;;;6.07;3.47;;;;;;;11.32;68.66;99090.19;5226905;28;20432;-42
2021/12/01 05:02:23;;;;;;;7.07;3.42;;;;;;;11.33;68.77;99069.84;5225751;28;20975;-44
2021/12/01 05:04:55;;;;;;;4.57;3.45;;;;;;;11.35;68.70;99057.28;5228420;28;20872;-41
2021/12/01 05:07:28;;;;;;;4.60;2.92;;;;;;;11.32;68.80;99053.19;5220264;28;20404;-42
2021/12/01 05:10:01;;;;;;;14.82;3.58;;;;;;;11.32;68.80;99045.25;5223596;28;20494;-41
2021/12/01 05:12:35;;;;;;;4.20;2.72;;;;;;;11.35;68.74;99041.41;5225937;28;20395;-42
2021/12/01 05:15:09;;;;;;;3.22;2.50;;;;;;;11.34;68.75;99023.94;5225741;28;20426;-42
2021/12/01 05:17:41;;;;;;;3.67;3.00;;;;;;;11.37;68.70;99034.09;5222901;28;20411;-43
2021/12/01 05:20:14;;;;;;;5.72;2.70;;;;;;;11.39;68.60;99037.34;5221005;28;20430;-42
2021/12/01 05:22:46;;;;;;;6.53;2.97;;;;;;;11.44;68.71;99028.84;5225899;28;20740;-41
2021/12/01 05:25:20;;;;;;;6.07;2.78;;;;;;;11.42;68.82;99015.81;5225294;28;20492;-46
2021/12/01 05:27:53;;;;;;;6.65;3.25;;;;;;;11.39;68.71;99015.41;5223971;28;20430;-40
2021/12/01 05:30:25;;;;;;;8.43;3.17;;;;;;;11.42;68.74;99010.50;5226762;28;20407;-42
2021/12/01 05:33:04;;;;;;;9.47;2.57;;;;;;;11.41;68.77;99019.47;5216330;28;20422;-39
2021/12/01 05:35:37;;;;;;;12.02;3.22;;;;;;;11.39;68.81;99013.56;5226654;28;20416;-42
2021/12/01 05:38:10;;;;;;;7.55;3.08;;;;;;;11.37;68.74;99023.53;5217352;28;20411;-42
2021/12/01 05:40:46;;;;;;;9.23;3.10;;;;;;;11.32;68.91;99010.91;5232927;28;20497;-40
2021/12/01 05:43:20;;;;;;;11.10;3.67;;;;;;;11.00;69.03;98970.16;5226629;28;20404;-43
2021/12/01 05:45:52;;;;;;;10.02;2.70;;;;;;;11.30;68.90;99001.53;5222686;28;20407;-41
2021/12/01 05:48:24;;;;;;;13.75;3.13;;;;;;;11.33;68.97;98990.56;5222643;28;20425;-41
2021/12/01 05:50:57;;;;;;;13.93;3.85;;;;;;;11.31;68.98;99000.53;5227399;28;20880;-43
2021/12/01 05:53:29;;;;;;;9.55;3.60;;;;;;;11.33;68.94;98990.56;5231868;28;20533;-41
2021/12/01 05:56:04;;;;;;;10.70;2.87;;;;;;;11.35;69.17;98982.47;5230082;28;20557;-42
2021/12/01 05:58:36;;;;;;;15.82;4.13;;;;;;;11.38;68.89;98969.66;5230286;28;20425;-41
2021/12/01 06:01:09;;;;;;;23.20;4.47;;;;;;;11.42;68.85;98967.41;5220423;28;20993;-42
2021/12/01 06:03:43;;;;;;;19.88;5.47;;;;;;;11.43;68.82;98959.31;5228830;28;20906;-41
2021/12/01 06:06:15;;;;;;;26.52;5.50;;;;;;;11.46;68.95;98964.19;5231000;28;20415;-43
2021/12/01 06:08:48;;;;;;;24.73;5.85;;;;;;;11.44;68.95;98944.25;5224318;28;20854;-46
2021/12/01 06:11:23;;;;;;;21.73;5.90;;;;;;;11.44;69.02;98955.63;5226847;28;20807;-41
2021/12/01 06:13:56;;;;;;;25.80;4.78;;;;;;;11.49;69.03;98945.28;5218374;28;20455;-42
2021/12/01 06:16:28;;;;;;;16.17;4.88;;;;;;;11.51;68.89;98940.59;5225297;28;20451;-41
2021/12/01 06:19:01;;;;;;;15.93;4.35;;;;;;;11.56;68.93;98928.59;5226518;28;20425;-44
2021/12/01 06:21:33;;;;;;;17.65;5.07;;;;;;;11.58;68.81;98922.06;5218459;28;20426;-42
2021/12/01 06:24:06;;;;;;;22.88;4.40;;;;;;;11.50;68.86;98915.16;5224901;28;20763;-40
2021/12/01 06:26:40;;;;;;;19.05;4.65;;;;;;;11.57;69.03;98935.50;5218348;28;20404;-42
2021/12/01 06:29:12;;;;;;;21.27;5.28;;;;;;;11.56;68.95;98924.13;5219099;28;20489;-42
2021/12/01 06:31:44;;;;;;;18.85;4.05;;;;;;;11.53;69.07;98917.41;5222650;28;20412;-42
2021/12/01 06:34:17;;;;;;;14.80;4.55;;;;;;;11.57;68.93;98914.38;5211791;28;21063;-42
2021/12/01 06:36:49;;;;;;;20.88;4.38;;;;;;;11.62;68.92;98918.03;5218061;28;20420;-42
2021/12/01 06:39:22;;;;;;;16.48;4.13;;;;;;;11.65;68.98;98914.97;5220046;28;20502;-43
2021/12/01 06:41:55;;;;;;;19.13;4.63;;;;;;;11.69;68.82;98904.81;5215924;28;20770;-42
2021/12/01 06:44:30;;;;;;;23.08;4.95;;;;;;;11.36;68.89;98865.94;5218127;28;20767;-42
2021/12/01 06:47:03;;;;;;;27.77;5.07;;;;;;;11.69;68.85;98910.09;5223187;28;20462;-42
2021/12/01 06:49:35;;;;;;;31.42;6.10;;;;;;;11.70;68.86;98901.13;5215826;28;20440;-46
2021/12/01 06:52:08;;;;;;;26.05;5.78;;;;;;;11.71;69.21;98900.13;5220702;28;20405;-42
2021/12/01 06:54:40;;;;;;;36.70;6.93;;;;;;;11.73;68.89;98876.91;5219949;28;20423;-42
2021/12/01 06:57:14;;;;;;;29.60;6.35;;;;;;;11.73;68.83;98869.00;5217068;28;20412;-43
2021/12/01 06:59:46;;;;;;;28.08;6.60;;;;;;;11.72;68.98;98868.19;5214888;28;20425;-43
2021/12/01 07:02:19;;;;;;;23.67;7.05;;;;;;;11.72;68.94;98859.44;5207164;28;20468;-47
2021/12/01 07:04:51;;;;;;;28.93;7.50;;;;;;;11.72;68.96;98867.38;5213570;28;20434;-43
2021/12/01 07:07:24;;;;;;;27.40;6.60;;;;;;;11.70;68.92;98861.47;5215483;28;20412;-43
2021/12/01 07:09:56;;;;;;;34.30;6.50;;;;;;;11.70;69.00;98848.25;5216302;28;20779;-46
2021/12/01 07:12:31;;;;;;;31.95;7.47;;;;;;;11.73;68.91;98858.41;5222636;28;20794;-42
2021/12/01 07:15:04;;;;;;;30.23;5.07;;;;;;;11.74;68.89;98852.94;5219901;28;20500;-45
2021/12/01 07:17:36;;;;;;;27.50;4.57;;;;;;;11.72;69.01;98854.16;5221555;28;20431;-45
2021/12/01 07:20:12;;;;;;;28.02;6.22;;;;;;;11.72;68.93;98862.91;5229590;28;20819;-43
2021/12/01 07:22:44;;;;;;;30.33;6.55;;;;;;;11.77;68.92;98886.09;5219140;28;20770;-45
2021/12/01 07:25:17;;;;;;;23.67;4.78;;;;;;;11.76;68.88;98889.75;5226119;28;20466;-45
2021/12/01 07:27:51;;;;;;;23.65;5.38;;;;;;;11.72;68.88;98888.53;5216230;28;20411;-43
2021/12/01 07:30:23;;;;;;;30.52;6.20;;;;;;;11.65;68.85;98877.16;5226486;28;20498;-43
2021/12/01 07:33:21;;;;;;;21.20;4.80;;;;;;;11.57;68.86;98886.09;5226139;28;20515;-45
2021/12/01 07:35:53;;;;;;;26.38;5.40;;;;;;;11.48;68.95;98879.38;5220198;28;20486;-45
2021/12/01 07:38:25;;;;;;;25.05;4.57;;;;;;;11.38;69.00;98879.78;5223648;28;20508;-44
2021/12/01 07:41:03;;;;;;;29.45;5.30;;;;;;;11.40;68.92;98880.41;5223758;28;20456;-45
2021/12/01 07:43:37;;;;;;;25.35;5.32;;;;;;;11.35;68.85;98877.56;5225348;28;20487;-44
2021/12/01 07:46:10;;;;;;;21.38;4.60;;;;;;;11.37;68.89;98878.16;5226481;28;20396;-42
2021/12/01 07:48:42;;;;;;;20.90;4.80;;;;;;;11.38;68.83;98863.13;5226424;28;20405;-44
2021/12/01 07:51:15;;;;;;;26.43;4.63;;;;;;;11.34;68.78;98881.22;5228915;28;20490;-42
2021/12/01 07:53:47;;;;;;;19.90;4.18;;;;;;;11.34;68.76;98890.97;5223090;28;20767;-42
2021/12/01 07:56:20;;;;;;;21.05;4.75;;;;;;;11.33;68.72;98882.22;5224854;28;20416;-47
2021/12/01 07:58:53;;;;;;;19.88;4.75;;;;;;;11.34;68.64;98899.72;5226004;28;20420;-43
2021/12/01 08:01:26;;;;;;;15.25;4.03;;;;;;;11.31;68.69;98921.25;5226705;28;20507;-42
2021/12/01 08:03:58;;;;;;;15.48;3.58;;;;;;;11.29;68.74;98920.63;5227990;28;20419;-44
2021/12/01 08:06:32;;;;;;;22.92;4.57;;;;;;;11.27;68.55;98909.44;5227547;28;20519;-43
2021/12/01 08:09:06;;;;;;;12.75;3.50;;;;;;;11.23;68.55;98903.75;5224807;28;20787;-49
2021/12/01 08:11:40;;;;;;;13.68;3.75;;;;;;;11.13;68.54;98899.91;5224165;28;20404;-43
2021/12/01 08:14:13;;;;;;;15.20;2.88;;;;;;;11.19;68.60;98912.31;5220564;28;20408;-45
2021/12/01 08:16:46;;;;;;;13.63;3.30;;;;;;;11.16;68.39;98910.06;5221571;28;20413;-42
2021/12/01 08:19:19;;;;;;;17.77;3.75;;;;;;;11.15;68.44;98918.97;5213956;28;20430;-46
2021/12/01 08:21:51;;;;;;;20.63;4.25;;;;;;;11.17;68.27;98927.53;5223329;28;20438;-44
2021/12/01 08:24:23;;;;;;;19.67;4.13;;;;;;;11.15;68.23;98925.09;5221287;28;20510;-47
2021/12/01 08:26:56;;;;;;;19.65;3.08;;;;;;;11.12;68.09;98920.22;5225432;28;20842;-42
2021/12/01 08:29:29;;;;;;;13.40;3.22;;;;;;;11.10;68.25;98910.88;5223679;28;20504;-41
2021/12/01 08:32:02;;;;;;;16.02;3.78;;;;;;;11.05;68.21;98914.91;5222164;28;20791;-47
2021/12/01 08:34:34;;;;;;;18.00;3.58;;;;;;;11.03;68.10;98918.78;5223982;28;20428;-44
2021/12/01 08:37:08;;;;;;;15.15;3.30;;;;;;;11.06;68.08;98911.25;5217746;28;20441;-44
2021/12/01 08:39:41;;;;;;;14.98;4.22;;;;;;;11.09;68.05;98920.63;5223397;28;20425;-42
2021/12/01 08:42:14;;;;;;;19.58;4.05;;;;;;;11.14;67.96;98938.50;5219601;28;20538;-43
2021/12/01 08:44:49;;;;;;;22.65;4.07;;;;;;;11.17;67.85;98938.09;5222401;28;20855;-43
2021/12/01 08:47:24;;;;;;;15.50;4.50;;;;;;;11.13;67.90;98931.59;5219526;28;20396;-44
2021/12/01 08:49:57;;;;;;;15.68;3.85;;;;;;;11.14;67.86;98941.13;5223039;28;20439;-43
2021/12/01 08:52:29;;;;;;;20.92;5.38;;;;;;;11.13;67.96;98944.81;5219365;28;20423;-42
2021/12/01 08:55:02;;;;;;;19.10;3.88;;;;;;;11.08;67.85;98946.19;5218808;28;20994;-42
2021/12/01 08:57:34;;;;;;;16.05;4.05;;;;;;;11.03;67.99;98943.34;5224611;28;20431;-42
2021/12/01 09:00:10;;;;;;;12.20;3.20;;;;;;;10.93;67.75;98950.00;5223407;28;20507;-41
2021/12/01 09:02:43;;;;;;;16.05;3.92;;;;;;;11.03;67.79;98963.69;5219973;28;20439;-50
2021/12/01 09:05:15;;;;;;;14.68;3.17;;;;;;;10.99;67.82;98968.53;5225654;28;20510;-42
2021/12/01 09:07:48;;;;;;;13.50;3.58;;;;;;;10.96;67.81;98971.59;5218422;28;20500;-42
2021/12/01 09:10:20;;;;;;;19.63;4.28;;;;;;;10.91;67.77;98981.91;5223014;28;20980;-42
2021/12/01 09:12:52;;;;;;;18.05;4.07;;;;;;;10.82;67.90;98961.97;5222949;28;20431;-41
2021/12/01 09:15:26;;;;;;;25.95;3.80;;;;;;;10.78;67.98;98966.84;5217471;28;20881;-42
2021/12/01 09:17:58;;;;;;;18.35;4.18;;;;;;;10.46;67.75;98933.97;5225282;28;20763;-42
2021/12/01 09:20:31;;;;;;;17.05;3.90;;;;;;;10.80;67.79;98985.13;5226191;28;20419;-42
2021/12/01 09:23:04;;;;;;;11.80;3.03;;;;;;;10.76;67.87;98974.13;5230816;28;20422;-43
2021/12/01 09:25:36;;;;;;;16.55;4.03;;;;;;;10.72;67.80;98978.19;5226015;28;20515;-42
2021/12/01 09:28:09;;;;;;;24.35;4.18;;;;;;;10.77;67.80;98988.94;5226880;28;20404;-44
2021/12/01 09:30:44;;;;;;;22.70;4.30;;;;;;;10.80;67.71;98995.69;5224126;28;21491;-43
2021/12/01 09:33:17;;;;;;;17.00;4.60;;;;;;;10.85;67.71;98985.34;5224538;28;20414;-47
2021/12/01 09:35:51;;;;;;;17.17;4.45;;;;;;;10.83;67.73;98985.53;5223861;28;20406;-43
2021/12/01 09:38:23;;;;;;;15.60;4.35;;;;;;;10.93;67.68;98987.81;5223498;28;20432;-43
2021/12/01 09:40:58;;;;;;;16.92;3.53;;;;;;;10.95;67.71;98972.56;5228249;28;20526;-43
2021/12/01 09:43:31;;;;;;;18.40;3.58;;;;;;;10.99;67.71;98989.66;5222888;28;20769;-43
2021/12/01 09:46:09;;;;;;;24.45;4.22;;;;;;;10.99;67.55;98989.66;5227495;28;20426;-52
2021/12/01 09:48:43;;;;;;;15.30;3.90;;;;;;;11.00;67.62;98995.78;5228440;28;20759;-42
2021/12/01 09:51:18;;;;;;;13.43;3.28;;;;;;;10.99;67.67;98979.09;5226007;28;20422;-41
2021/12/01 09:53:52;;;;;;;23.25;4.68;;;;;;;10.98;67.58;98981.94;5222896;28;20414;-43
2021/12/01 09:56:25;;;;;;;29.23;4.90;;;;;;;11.00;67.54;98991.31;5222933;28;20879;-41
2021/12/01 09:58:58;;;;;;;21.17;4.90;;;;;;;10.99;67.62;98994.94;5226042;28;20493;-43
2021/12/01 10:01:33;;;;;;;24.05;5.10;;;;;;;10.97;67.56;98978.50;5228764;28;20506;-42
2021/12/01 10:04:06;;;;;;;25.63;4.67;;;;;;;10.96;67.53;98990.06;5225550;28;20427;-42
2021/12/01 10:06:38;;;;;;;31.58;5.55;;;;;;;10.93;67.54;98987.81;5220381;28;20418;-43
2021/12/01 10:09:13;;;;;;;25.13;4.77;;;;;;;10.97;67.49;98985.59;5227379;28;20589;-43
2021/12/01 10:11:45;;;;;;;18.30;4.25;;;;;;;10.98;67.51;98976.66;5222733;28;20541;-42
2021/12/01 10:14:20;;;;;;;24.00;4.90;;;;;;;11.02;67.42;98985.81;5218268;28;20427;-43
2021/12/01 10:16:55;;;;;;;21.63;4.68;;;;;;;10.95;67.34;98971.78;5216078;28;20403;-43
2021/12/01 10:19:28;;;;;;;25.65;4.47;;;;;;;11.07;67.32;98986.84;5222501;28;20425;-42
2021/12/01 10:22:01;;;;;;;31.73;4.68;;;;;;;11.08;67.27;98980.53;5226332;28;20430;-42
2021/12/01 10:24:37;;;;;;;21.48;4.70;;;;;;;11.08;67.24;98985.81;5218240;28;20419;-42
2021/12/01 10:27:13;;;;;;;20.60;4.68;;;;;;;11.11;67.21;98999.66;5217731;28;20517;-42
2021/12/01 10:29:49;;;;;;;17.58;4.85;;;;;;;11.10;67.12;98974.25;5224584;28;20403;-44
2021/12/01 10:32:22;;;;;;;19.55;4.28;;;;;;;11.11;67.28;98986.44;5219269;28;20416;-44
2021/12/01 10:34:58;;;;;;;29.15;6.43;;;;;;;11.11;67.16;98992.53;5222290;28;20446;-43
2021/12/01 10:37:33;;;;;;;24.70;5.32;;;;;;;11.12;67.11;98988.06;5220234;28;20844;-43
2021/12/01 10:40:11;;;;;;;18.30;4.80;;;;;;;11.12;67.00;98988.06;5225377;28;20443;-43
2021/12/01 10:42:53;;;;;;;21.77;5.93;;;;;;;11.08;67.00;98982.38;5220675;28;20474;-45
2021/12/01 10:45:28;;;;;;;31.35;5.55;;;;;;;11.07;67.07;98986.84;5214340;28;20438;-43
2021/12/01 10:48:03;;;;;;;32.58;5.53;;;;;;;11.07;67.12;98991.31;5224128;28;20414;-42
2021/12/01 10:50:40;;;;;;;17.02;4.10;;;;;;;11.03;67.08;98977.69;5220375;28;20438;-45
2021/12/01 10:53:15;;;;;;;22.83;4.18;;;;;;;10.99;67.06;98979.09;5219453;28;20429;-44
2021/12/01 10:55:50;;;;;;;18.83;4.15;;;;;;;10.95;66.91;98967.28;5220996;28;20573;-41
2021/12/01 10:58:31;;;;;;;17.73;4.88;;;;;;;10.97;66.83;98975.84;5220570;28;20761;-45
2021/12/01 11:01:05;;;;;;;17.83;4.25;;;;;;;11.05;66.92;98994.16;5220608;28;20434;-49
2021/12/01 11:03:46;;;;;;;13.43;4.05;;;;;;;11.03;66.93;98993.53;5215525;28;20809;-43
2021/12/01 11:06:21;;;;;;;18.50;4.55;;;;;;;11.03;66.83;98985.63;5220805;28;20416;-41
2021/12/01 11:08:57;;;;;;;23.73;5.15;;;;;;;11.03;66.82;98988.25;5220477;28;20833;-43
2021/12/01 11:11:39;;;;;;;22.83;5.18;;;;;;;11.05;66.87;98993.34;5225421;28;20502;-43
2021/12/01 11:14:14;;;;;;;23.20;3.88;;;;;;;11.07;66.77;98991.31;5222222;28;20408;-41
2021/12/01 11:16:47;;;;;;;19.00;3.42;;;;;;;11.06;66.69;98968.56;5220921;28;20469;-43
2021/12/01 11:19:33;;;;;;;19.55;4.35;;;;;;;11.07;66.76;98971.00;5219979;28;20586;-43
2021/12/01 11:22:28;;;;;;;20.33;5.28;;;;;;;11.08;66.67;98987.66;5219610;28;20447;-45
2021/12/01 11:25:21;;;;;;;17.85;4.20;;;;;;;11.09;66.64;98973.47;5224332;28;20434;-42
2021/12/01 11:27:54;;;;;;;21.75;4.55;;;;;;;11.11;66.61;98970.59;5219186;28;20919;-41
2021/12/01 11:30:26;;;;;;;17.27;5.30;;;;;;;11.14;66.51;98962.28;5227296;28;20554;-42
2021/12/01 11:32:59;;;;;;;16.20;3.83;;;;;;;11.15;66.50;98971.81;5226697;28;20414;-45
2021/12/01 11:35:33;;;;;;;23.23;4.85;;;;;;;11.07;66.37;98975.47;5224380;28;20508;-44
2021/12/01 11:38:06;;;;;;;20.88;4.60;;;;;;;11.11;66.44;98960.03;5221100;28;20425;-47
2021/12/01 11:40:39;;;;;;;18.10;5.18;;;;;;;11.14;66.30;98972.84;5214919;28;20372;-43
2021/12/01 11:43:14;;;;;;;23.20;6.03;;;;;;;11.15;66.32;98990.31;5219653;28;20928;-42
2021/12/01 11:45:48;;;;;;;33.42;4.15;;;;;;;11.13;66.26;98955.38;5217777;28;20502;-42
2021/12/01 11:48:29;;;;;;;23.17;5.30;;;;;;;11.11;66.30;98966.13;5210264;28;20964;-44
2021/12/01 11:51:17;;;;;;;21.42;5.50;;;;;;;11.11;66.12;98960.03;5219690;28;20784;-41
2021/12/01 11:53:54;;;;;;;20.80;5.72;;;;;;;11.10;66.08;98971.63;5215267;28;20807;-48
2021/12/01 11:56:29;;;;;;;22.58;5.00;;;;;;;11.03;66.13;98969.78;5213355;28;20427;-43
2021/12/01 11:59:05;;;;;;;22.40;4.97;;;;;;;11.00;66.21;98983.38;5218416;28;20420;-49
2021/12/01 12:01:50;;;;;;;18.10;4.22;;;;;;;10.97;66.22;98991.69;5215206;28;20414;-44